Aérodrome :
LOGIN :

S'inscrire | Disclaimer

   EN    FR    IT 

 










Légende :    VFR   VFR Marginal   IFR   IFR Intensif   IFR Très Intensif
Visi : 
Plafond : 
>= 8 km
>= 3000ft
5 à 8 km
1000 à 3000 ft
1500m à 5 km
500 à 1000 ft
800 à 1500m
200 à 500 ft
< 800m
< 200 ft
Symboles :   Orages  Brouillard  Fortes neiges  Fortes précipitations  Vent > 20 kt
SIGMETs :   Divers  Orages  Givrage  Turbulence  Onde Orograph.  Cendres Volcan.






- Altitude de l'aérodrome : 12 ft
- Code IATA : NCE


LFMN - Nice

DERNIER METAR :
  • 282130Z AUTO 31004KT CAVOK 18/15 Q1020 NOSIG

METARs EXPIRÉS :
  • 282100Z AUTO 03004KT CAVOK 19/15 Q1020 BECMG 33010KT
  • 282030Z AUTO 32003KT 280V340 CAVOK 19/15 Q1020 NOSIG
  • 282000Z AUTO 33005KT 9999 FEW054 OVC130 19/15 Q1020 NOSIG
  • 281930Z AUTO 31005KT 290V350 CAVOK 18/15 Q1020 NOSIG
  • 281900Z AUTO 04004KT CAVOK 19/15 Q1020 BECMG 33010KT

TAF TAF LFMN
Valide du 28 à 21h jusqu'au 30 à 03h UTC


282000Z 2821/3003 33010KT 9999 FEW040 BKN120
BECMG 2900/2902 08010KT
PROB30
TEMPO 2902/2905 BKN012
BECMG 2907/2910 10015G25KT SCT040
TEMPO 2910/2914 11020G30KT
PROB30
TEMPO 2910/2917 SHRA BKN030TCU
BECMG 2917/2919 33010KT CAVOK
ATIS : +33 4 93 17 21 16



MET'MAP, la Météo Aéronautique d'un coup d'oeil ! - Copyright ORBIFLY Décembre 2007 - Disclaimer

ORBIFLY MET'MAP TEAM :

Programmation & Développement : Alexandra Zaïnal
Sur une idée originale de : Baudouin d'Aumeries
Assistance à la programmation : Marc-Olivier Méhu
Soutien technique & logistique : Manuel Goepfert

Contact : metmap@orbifly.com




SOURCES & CREDITS :

   NOAA